createdAt,value
2022-11-22T00:00:20.145Z,20.58
2022-11-22T00:02:46.670Z,20.80
2022-11-22T00:05:13.524Z,20.08
2022-11-22T00:07:40.288Z,20.48
2022-11-22T00:10:08.193Z,20.77
2022-11-22T00:12:34.717Z,19.58
2022-11-22T00:15:01.579Z,20.50
2022-11-22T00:17:28.248Z,19.80
2022-11-22T00:19:54.752Z,19.77
2022-11-22T00:22:21.203Z,18.95
2022-11-22T00:24:47.797Z,19.25
2022-11-22T00:27:14.220Z,19.33
2022-11-22T00:29:40.610Z,19.33
2022-11-22T00:32:07.037Z,18.75
2022-11-22T00:34:33.469Z,19.58
2022-11-22T00:37:00.006Z,19.40
2022-11-22T00:39:26.438Z,19.80
2022-11-22T00:41:52.860Z,18.70
2022-11-22T00:44:19.283Z,19.40
2022-11-22T00:46:45.668Z,19.83
2022-11-22T00:49:12.091Z,20.65
2022-11-22T00:51:38.562Z,19.58
2022-11-22T00:54:05.115Z,19.45
2022-11-22T00:56:32.113Z,20.33
2022-11-22T00:58:58.855Z,20.17
2022-11-22T01:01:25.412Z,19.77
2022-11-22T01:03:51.911Z,19.98
2022-11-22T01:06:18.362Z,20.85
2022-11-22T01:08:45.121Z,19.60
2022-11-22T01:11:13.021Z,20.88
2022-11-22T01:13:39.501Z,19.73
2022-11-22T01:16:08.625Z,20.05
2022-11-22T01:18:35.077Z,19.27
2022-11-22T01:21:02.370Z,21.48
2022-11-22T01:23:29.009Z,21.60
2022-11-22T01:25:56.957Z,21.13
2022-11-22T01:28:23.924Z,21.30
2022-11-22T01:30:51.675Z,21.20
2022-11-22T01:33:18.943Z,21.65
2022-11-22T01:35:45.451Z,21.92
2022-11-22T01:38:12.008Z,21.70
2022-11-22T01:40:38.441Z,22.35
2022-11-22T01:43:16.141Z,21.30
2022-11-22T01:45:45.260Z,22.52
2022-11-22T01:48:11.605Z,22.77
2022-11-22T01:50:43.106Z,23.05
2022-11-22T01:53:13.479Z,22.15
2022-11-22T01:55:41.139Z,22.00
2022-11-22T01:58:10.009Z,21.77
2022-11-22T02:00:38.749Z,22.58
2022-11-22T02:03:09.453Z,21.80
2022-11-22T02:09:23.401Z,20.38
2022-11-22T02:11:53.814Z,22.55
2022-11-22T02:14:24.871Z,16.50
2022-11-22T02:16:51.458Z,21.30
2022-11-22T02:19:28.217Z,20.58
2022-11-22T02:22:01.392Z,21.85
2022-11-22T02:24:46.685Z,22.48
2022-11-22T02:27:13.158Z,23.13
2022-11-22T02:29:40.014Z,21.58
2022-11-22T02:32:06.483Z,22.08
2022-11-22T02:34:47.218Z,24.35
2022-11-22T02:37:20.465Z,21.92
2022-11-22T02:39:48.564Z,23.35
2022-11-22T02:42:15.098Z,24.48
2022-11-22T02:44:42.237Z,24.85
2022-11-22T02:47:08.822Z,26.45
2022-11-22T02:49:35.326Z,25.48
2022-11-22T02:52:02.166Z,24.45
2022-11-22T02:54:28.605Z,26.52
2022-11-22T02:56:55.011Z,24.85
2022-11-22T02:59:21.508Z,25.88
2022-11-22T03:01:48.897Z,26.73
2022-11-22T03:04:25.041Z,25.48
2022-11-22T03:06:56.626Z,25.73
2022-11-22T03:09:24.430Z,25.20
2022-11-22T03:11:51.861Z,23.92
2022-11-22T03:14:18.445Z,24.42
2022-11-22T03:16:46.266Z,25.17
2022-11-22T03:19:13.464Z,24.52
2022-11-22T03:21:42.118Z,24.77
2022-11-22T03:24:10.071Z,24.83
2022-11-22T03:26:37.076Z,25.65
2022-11-22T03:29:03.772Z,25.83
2022-11-22T03:31:30.420Z,25.33
2022-11-22T03:33:57.021Z,26.10
2022-11-22T03:36:23.487Z,26.95
2022-11-22T03:38:50.607Z,26.70
2022-11-22T03:41:17.092Z,27.95
2022-11-22T03:43:43.529Z,26.02
2022-11-22T03:46:19.459Z,25.65
2022-11-22T03:48:46.676Z,26.33
2022-11-22T03:51:13.429Z,25.10
2022-11-22T03:53:39.968Z,26.40
2022-11-22T03:56:07.026Z,27.83
2022-11-22T03:58:33.692Z,26.52
2022-11-22T04:01:00.670Z,27.15
2022-11-22T04:03:27.646Z,26.67
2022-11-22T04:05:54.343Z,27.08
2022-11-22T04:08:20.899Z,26.52
2022-11-22T04:10:52.010Z,25.13
2022-11-22T04:13:18.826Z,27.00
2022-11-22T04:15:45.351Z,25.67
2022-11-22T04:18:13.335Z,25.60
2022-11-22T04:20:59.120Z,26.63
2022-11-22T04:23:32.206Z,26.42
2022-11-22T04:26:00.172Z,27.23
2022-11-22T04:28:40.918Z,27.42
2022-11-22T04:31:32.313Z,28.35
2022-11-22T04:33:58.704Z,28.65
2022-11-22T04:36:25.118Z,29.27
2022-11-22T04:38:52.173Z,29.58
2022-11-22T04:41:18.692Z,31.70
2022-11-22T04:44:03.982Z,29.52
2022-11-22T04:46:31.494Z,30.67
2022-11-22T04:48:58.017Z,32.25
2022-11-22T04:51:42.846Z,30.80
2022-11-22T04:54:09.405Z,31.10
2022-11-22T04:56:35.912Z,31.95
2022-11-22T04:59:02.361Z,31.02
2022-11-22T05:01:28.881Z,31.20
2022-11-22T05:03:55.471Z,31.08
2022-11-22T05:06:21.942Z,32.70
2022-11-22T05:08:48.350Z,32.53
2022-11-22T05:11:14.954Z,33.33
2022-11-22T05:13:42.507Z,31.77
2022-11-22T05:16:11.793Z,31.60
2022-11-22T05:18:38.980Z,31.75
2022-11-22T05:21:14.848Z,32.65
2022-11-22T05:23:56.507Z,33.25
2022-11-22T05:26:31.617Z,34.15
2022-11-22T05:28:59.042Z,34.20
2022-11-22T05:31:27.488Z,35.22
2022-11-22T05:33:56.026Z,33.80
2022-11-22T05:36:23.452Z,35.95
2022-11-22T05:38:50.259Z,36.30
2022-11-22T05:41:17.371Z,37.60
2022-11-22T05:43:44.166Z,33.47
2022-11-22T05:46:19.620Z,34.60
2022-11-22T05:48:50.231Z,35.03
2022-11-22T05:51:19.747Z,36.35
2022-11-22T05:53:47.017Z,35.15
2022-11-22T05:56:22.864Z,35.30
2022-11-22T05:58:50.668Z,37.72
2022-11-22T06:01:19.591Z,35.95
2022-11-22T06:03:46.533Z,33.55
2022-11-22T06:06:13.598Z,36.15
2022-11-22T06:08:41.533Z,36.65
2022-11-22T06:11:12.900Z,33.60
2022-11-22T06:16:08.705Z,30.55
2022-11-22T06:18:35.562Z,32.83
2022-11-22T06:21:05.982Z,33.67
2022-11-22T06:23:33.400Z,33.85
2022-11-22T06:26:01.952Z,33.38
2022-11-22T06:28:33.950Z,33.33
2022-11-22T06:31:12.692Z,33.97
2022-11-22T06:33:40.008Z,35.75
2022-11-22T06:36:11.992Z,34.40
2022-11-22T06:38:40.104Z,36.08
2022-11-22T06:41:09.392Z,35.08
2022-11-22T06:43:37.434Z,34.50
2022-11-22T06:46:05.626Z,35.28
2022-11-22T06:48:35.073Z,35.55
2022-11-22T06:51:03.157Z,35.17
2022-11-22T06:53:46.691Z,34.45
2022-11-22T06:56:24.986Z,34.92
2022-11-22T06:58:52.936Z,33.35
2022-11-22T07:01:27.533Z,34.38
2022-11-22T07:03:58.358Z,34.55
2022-11-22T07:06:37.282Z,34.20
2022-11-22T07:09:06.927Z,34.63
2022-11-22T07:11:35.210Z,34.00
2022-11-22T07:14:07.721Z,33.88
2022-11-22T07:16:36.195Z,34.22
2022-11-22T07:19:02.678Z,33.72
2022-11-22T07:21:29.105Z,33.97
2022-11-22T07:23:56.194Z,34.75
2022-11-22T07:26:25.851Z,34.50
2022-11-22T07:28:52.362Z,33.63
2022-11-22T07:31:19.099Z,34.22
2022-11-22T07:33:45.967Z,34.03
2022-11-22T07:36:12.343Z,32.80
2022-11-22T07:38:39.235Z,34.22
2022-11-22T07:41:06.777Z,31.55
2022-11-22T07:43:33.592Z,30.20
2022-11-22T07:46:01.428Z,32.90
2022-11-22T07:48:27.877Z,31.45
2022-11-22T07:50:54.450Z,29.33
2022-11-22T07:53:21.277Z,31.60
2022-11-22T07:55:47.912Z,31.48
2022-11-22T07:58:14.381Z,31.60
2022-11-22T08:00:40.955Z,32.30
2022-11-22T08:03:08.314Z,32.03
2022-11-22T08:05:34.742Z,31.52
2022-11-22T08:08:01.355Z,30.75
2022-11-22T08:10:27.845Z,29.92
2022-11-22T08:12:54.268Z,31.13
2022-11-22T08:15:20.841Z,32.50
2022-11-22T08:17:47.555Z,32.55
2022-11-22T08:20:14.360Z,31.00
2022-11-22T08:22:41.106Z,31.08
2022-11-22T08:25:12.606Z,32.78
2022-11-22T08:27:43.025Z,30.80
2022-11-22T08:30:11.220Z,32.17
2022-11-22T08:32:38.436Z,30.67
2022-11-22T08:35:05.638Z,33.15
2022-11-22T08:37:32.249Z,30.52
2022-11-22T08:39:58.741Z,31.27
2022-11-22T08:42:25.194Z,31.33
2022-11-22T08:44:51.670Z,31.33
2022-11-22T08:47:18.305Z,32.80
2022-11-22T08:49:44.909Z,31.75
2022-11-22T08:52:11.352Z,33.00
2022-11-22T08:54:38.352Z,33.60
2022-11-22T08:57:05.253Z,33.00
2022-11-22T08:59:32.189Z,32.35
2022-11-22T09:01:59.300Z,33.70
2022-11-22T09:04:25.906Z,32.35
2022-11-22T09:09:38.799Z,33.78
2022-11-22T09:12:05.745Z,31.33
2022-11-22T09:14:32.183Z,31.90
2022-11-22T09:16:58.645Z,33.50
2022-11-22T09:19:25.189Z,33.63
2022-11-22T09:21:51.659Z,32.72
2022-11-22T09:24:18.085Z,32.00
2022-11-22T09:26:44.491Z,31.70
2022-11-22T09:29:11.060Z,31.77
2022-11-22T09:31:37.673Z,30.70
2022-11-22T09:34:04.121Z,31.40
2022-11-22T09:36:30.985Z,32.03
2022-11-22T09:38:57.491Z,33.78
2022-11-22T09:41:51.273Z,32.28
2022-11-22T09:44:26.763Z,30.60
2022-11-22T09:46:59.217Z,30.08
2022-11-22T09:49:47.186Z,33.05
2022-11-22T09:52:32.311Z,31.98
2022-11-22T09:55:26.618Z,32.88
2022-11-22T09:58:05.956Z,33.42
2022-11-22T10:00:33.119Z,32.60
2022-11-22T10:03:14.483Z,33.97
2022-11-22T10:05:56.350Z,33.25
2022-11-22T10:08:37.499Z,33.53
2022-11-22T10:11:36.085Z,34.08
2022-11-22T10:14:12.240Z,32.10
2022-11-22T10:16:44.345Z,33.67
2022-11-22T10:19:14.780Z,35.50
2022-11-22T10:21:42.419Z,32.53
2022-11-22T10:24:16.739Z,34.88
2022-11-22T10:26:43.272Z,33.03
2022-11-22T10:29:27.296Z,34.00
2022-11-22T10:32:08.430Z,32.63
2022-11-22T10:34:40.597Z,33.15
2022-11-22T10:37:20.373Z,32.63
2022-11-22T10:39:52.608Z,34.20
2022-11-22T10:42:42.214Z,31.70
2022-11-22T10:45:29.662Z,32.70
2022-11-22T10:48:34.578Z,31.70
2022-11-22T10:51:16.022Z,32.35
2022-11-22T10:54:03.847Z,32.80
2022-11-22T10:56:39.184Z,33.03
2022-11-22T10:59:36.084Z,34.00
2022-11-22T11:02:10.212Z,34.22
2022-11-22T11:04:39.901Z,32.33
2022-11-22T11:07:12.817Z,34.03
2022-11-22T11:12:47.188Z,33.13
2022-11-22T11:15:32.638Z,32.30
2022-11-22T11:18:02.863Z,33.95
2022-11-22T11:20:37.117Z,32.95
2022-11-22T11:23:18.945Z,33.90
2022-11-22T11:25:47.181Z,33.75
2022-11-22T11:28:19.049Z,36.90
2022-11-22T11:30:55.726Z,31.63
2022-11-22T11:33:41.677Z,33.25
2022-11-22T11:36:16.093Z,31.48
2022-11-22T11:38:42.480Z,33.28
2022-11-22T11:41:20.317Z,31.90
2022-11-22T11:43:47.691Z,31.70
2022-11-22T11:46:22.816Z,32.13
2022-11-22T11:48:54.813Z,32.63
2022-11-22T11:51:41.448Z,33.53
2022-11-22T11:54:21.658Z,32.42
2022-11-22T11:56:57.889Z,32.55
2022-11-22T11:59:41.870Z,32.63
2022-11-22T12:02:21.707Z,31.67
2022-11-22T12:04:59.368Z,31.83
2022-11-22T12:07:35.872Z,32.28
2022-11-22T12:10:24.207Z,31.23
2022-11-22T12:13:00.201Z,31.38
2022-11-22T12:15:44.106Z,33.03
2022-11-22T12:18:30.774Z,31.48
2022-11-22T12:21:13.723Z,32.55
2022-11-22T12:23:51.030Z,32.70
2022-11-22T12:26:18.444Z,33.08
2022-11-22T12:28:45.139Z,32.83
2022-11-22T12:31:20.705Z,32.75
2022-11-22T12:34:02.366Z,32.78
2022-11-22T12:39:35.329Z,32.22
2022-11-22T12:42:23.905Z,32.35
2022-11-22T12:45:20.260Z,31.85
2022-11-22T12:47:48.281Z,32.13
2022-11-22T12:50:30.111Z,33.55
2022-11-22T12:53:05.161Z,32.92
2022-11-22T12:55:44.805Z,31.92
2022-11-22T12:58:20.902Z,31.98
2022-11-22T13:01:17.122Z,31.70
2022-11-22T13:04:25.855Z,31.77
2022-11-22T13:07:01.915Z,31.90
2022-11-22T13:09:35.031Z,32.97
2022-11-22T13:12:15.088Z,32.45
2022-11-22T13:14:55.265Z,32.08
2022-11-22T13:17:24.488Z,31.83
2022-11-22T13:20:05.853Z,32.08
2022-11-22T13:22:59.766Z,31.65
2022-11-22T13:25:38.075Z,31.75
2022-11-22T13:28:23.857Z,32.17
2022-11-22T13:31:12.115Z,34.20
2022-11-22T13:34:02.370Z,33.50
2022-11-22T13:36:31.809Z,33.40
2022-11-22T13:39:05.535Z,33.58
2022-11-22T13:41:34.814Z,33.25
2022-11-22T13:44:23.226Z,31.88
2022-11-22T13:46:49.570Z,33.55
2022-11-22T13:49:38.254Z,32.75
2022-11-22T13:52:16.795Z,32.83
2022-11-22T13:54:58.239Z,34.92
2022-11-22T13:57:44.996Z,32.45
2022-11-22T14:00:11.371Z,33.30
2022-11-22T14:02:48.021Z,32.55
2022-11-22T14:05:41.255Z,32.05
2022-11-22T14:08:36.268Z,31.48
2022-11-22T14:11:24.223Z,32.15
2022-11-22T14:14:04.404Z,33.17
2022-11-22T14:16:44.076Z,31.38
2022-11-22T14:19:25.500Z,31.80
2022-11-22T14:22:03.538Z,29.58
2022-11-22T14:24:36.532Z,31.83
2022-11-22T14:27:26.881Z,32.00
2022-11-22T14:30:36.810Z,31.98
2022-11-22T14:33:15.426Z,31.38
2022-11-22T14:36:06.740Z,31.30
2022-11-22T14:38:35.558Z,31.65
2022-11-22T14:41:40.575Z,32.05
2022-11-22T14:44:09.893Z,30.58
2022-11-22T14:46:53.892Z,30.90
2022-11-22T14:49:23.867Z,32.20
2022-11-22T14:51:55.992Z,30.80
2022-11-22T14:54:28.361Z,31.50
2022-11-22T14:57:02.824Z,33.17
2022-11-22T15:00:02.675Z,29.95
2022-11-22T15:02:44.393Z,31.42
2022-11-22T15:09:13.159Z,30.02
2022-11-22T15:11:20.917Z,31.40
2022-11-22T15:14:24.523Z,31.08
2022-11-22T15:59:43.150Z,33.70
2022-11-22T16:02:16.090Z,34.17
2022-11-22T16:06:05.473Z,35.70
2022-11-22T16:07:49.026Z,34.75
2022-11-22T16:10:37.115Z,34.70
2022-11-22T16:13:24.237Z,33.95
2022-11-22T16:16:10.690Z,34.80
2022-11-22T16:18:38.730Z,34.05
2022-11-22T16:21:19.852Z,33.80
2022-11-22T16:23:47.090Z,35.28
2022-11-22T16:26:29.285Z,33.88
2022-11-22T16:29:10.346Z,33.95
2022-11-22T16:31:39.030Z,33.42
2022-11-22T16:34:12.761Z,34.92
2022-11-22T16:36:39.431Z,34.65
2022-11-22T16:39:05.940Z,35.13
2022-11-22T16:41:34.387Z,36.17
2022-11-22T16:44:04.068Z,35.72
2022-11-22T16:46:30.461Z,35.88
2022-11-22T16:48:57.050Z,36.95
2022-11-22T16:51:28.041Z,35.15
2022-11-22T16:53:58.594Z,35.22
2022-11-22T16:56:29.250Z,36.17
2022-11-22T16:58:57.527Z,37.03
2022-11-22T17:01:26.552Z,33.35
2022-11-22T17:03:55.628Z,36.63
2022-11-22T17:06:24.809Z,36.85
2022-11-22T17:08:54.239Z,36.38
2022-11-22T17:11:23.395Z,36.90
2022-11-22T17:13:50.049Z,35.03
2022-11-22T17:16:17.876Z,35.53
2022-11-22T17:18:45.847Z,36.80
2022-11-22T17:21:32.910Z,39.97
2022-11-22T17:24:20.966Z,36.75
2022-11-22T17:26:47.401Z,36.40
2022-11-22T17:29:42.897Z,36.67
2022-11-22T17:32:00.685Z,37.35
2022-11-22T17:34:27.258Z,37.42
2022-11-22T17:36:53.708Z,38.63
2022-11-22T17:39:20.190Z,37.72
2022-11-22T17:41:48.802Z,38.60
2022-11-22T17:44:17.815Z,36.03
2022-11-22T17:46:44.380Z,39.40
2022-11-22T17:49:16.165Z,39.83
2022-11-22T17:51:43.315Z,37.83
2022-11-22T17:54:09.988Z,38.53
2022-11-22T17:56:37.486Z,39.65
2022-11-22T17:59:05.043Z,39.65
2022-11-22T18:01:31.619Z,40.00
2022-11-22T18:03:58.090Z,38.85
2022-11-22T18:06:26.232Z,38.90
2022-11-22T18:08:52.750Z,39.15
2022-11-22T18:11:19.198Z,38.33
2022-11-22T18:13:45.708Z,38.95
2022-11-22T18:16:14.720Z,39.28
2022-11-22T18:18:58.018Z,39.13
2022-11-22T18:21:26.075Z,38.58
2022-11-22T18:23:52.512Z,40.08
2022-11-22T18:31:53.228Z,40.10
2022-11-22T18:34:20.642Z,37.78
2022-11-22T18:37:04.083Z,40.20
2022-11-22T18:39:37.092Z,38.97
2022-11-22T18:42:06.088Z,37.63
2022-11-22T18:44:32.762Z,39.60
2022-11-22T18:46:59.276Z,40.17
2022-11-22T18:49:25.765Z,39.92
2022-11-22T18:51:52.200Z,38.25
2022-11-22T18:54:19.748Z,39.13
2022-11-22T18:56:46.172Z,39.92
2022-11-22T18:59:12.916Z,41.28
2022-11-22T19:01:40.544Z,39.30
2022-11-22T19:04:07.533Z,38.70
2022-11-22T19:06:34.031Z,40.13
2022-11-22T19:09:01.046Z,40.75
2022-11-22T19:11:29.506Z,38.47
2022-11-22T19:13:55.973Z,39.42
2022-11-22T19:16:22.867Z,40.75
2022-11-22T19:18:50.087Z,39.83
2022-11-22T19:21:18.956Z,37.42
2022-11-22T19:23:46.838Z,38.33
2022-11-22T19:26:19.342Z,41.03
2022-11-22T19:28:48.020Z,42.47
2022-11-22T19:31:17.493Z,39.17
2022-11-22T19:33:44.386Z,40.97
2022-11-22T19:36:13.945Z,40.67
2022-11-22T19:38:41.108Z,39.10
2022-11-22T19:41:12.780Z,41.25
2022-11-22T19:43:39.591Z,40.25
2022-11-22T19:46:06.718Z,38.75
2022-11-22T19:48:35.288Z,41.10
2022-11-22T19:51:08.868Z,39.20
2022-11-22T19:53:35.671Z,40.38
2022-11-22T19:56:07.112Z,38.63
2022-11-22T19:58:33.815Z,38.78
2022-11-22T20:01:08.103Z,40.15
2022-11-22T20:03:35.828Z,39.88
2022-11-22T20:06:03.922Z,38.90
2022-11-22T20:08:30.997Z,41.47
2022-11-22T20:11:08.907Z,39.72
2022-11-22T20:13:41.560Z,37.92
2022-11-22T20:16:10.952Z,40.08
2022-11-22T20:18:37.785Z,39.50
2022-11-22T20:21:05.637Z,38.10
2022-11-22T20:23:32.382Z,41.25
2022-11-22T20:26:03.657Z,38.35
2022-11-22T20:28:30.192Z,37.50
2022-11-22T20:31:13.591Z,39.00
2022-11-22T20:33:42.858Z,40.20
2022-11-22T20:36:14.887Z,38.42
2022-11-22T20:38:43.122Z,38.08
2022-11-22T20:41:11.392Z,39.17
2022-11-22T20:43:38.136Z,38.85
2022-11-22T20:46:13.847Z,37.92
2022-11-22T20:48:42.311Z,40.65
2022-11-22T20:51:11.820Z,38.17
2022-11-22T20:53:38.671Z,38.35
2022-11-22T20:56:05.624Z,37.72
2022-11-22T20:58:32.606Z,39.80
2022-11-22T21:00:59.405Z,38.25
2022-11-22T21:03:28.094Z,38.85
2022-11-22T21:05:55.384Z,38.97
2022-11-22T21:08:22.988Z,39.42
2022-11-22T21:10:49.579Z,40.15
2022-11-22T21:13:16.414Z,39.63
2022-11-22T21:15:43.323Z,38.20
2022-11-22T21:18:25.365Z,39.22
2022-11-22T21:20:52.541Z,41.28
2022-11-22T21:23:19.068Z,39.28
2022-11-22T21:25:46.135Z,38.47
2022-11-22T21:28:12.573Z,40.25
2022-11-22T21:30:39.037Z,38.13
2022-11-22T21:33:05.644Z,40.30
2022-11-22T21:35:32.047Z,41.35
2022-11-22T21:37:58.547Z,39.72
2022-11-22T21:40:25.182Z,39.50
2022-11-22T21:42:51.579Z,41.78
2022-11-22T21:45:18.024Z,40.70
2022-11-22T21:47:47.297Z,42.83
2022-11-22T21:50:15.257Z,40.72
2022-11-22T21:52:42.322Z,39.75
2022-11-22T21:55:09.686Z,42.25
2022-11-22T21:57:36.133Z,42.05
2022-11-22T22:00:06.051Z,41.25
2022-11-22T22:02:32.955Z,42.20
2022-11-22T22:04:59.534Z,41.72
2022-11-22T22:07:45.107Z,42.97
2022-11-22T22:10:13.279Z,39.97
2022-11-22T22:12:40.848Z,43.42
2022-11-22T22:15:11.951Z,40.95
2022-11-22T22:17:38.553Z,42.10
2022-11-22T22:20:05.644Z,42.30
2022-11-22T22:22:35.486Z,41.92
2022-11-22T22:25:01.881Z,41.63
2022-11-22T22:27:31.038Z,42.53
2022-11-22T22:29:58.368Z,42.72
2022-11-22T22:32:25.587Z,41.20
2022-11-22T22:34:52.427Z,42.30
2022-11-22T22:37:19.062Z,42.25
2022-11-22T22:39:45.749Z,43.45
2022-11-22T22:42:12.244Z,42.17
2022-11-22T22:44:38.625Z,43.42
2022-11-22T22:47:05.014Z,42.75
2022-11-22T22:49:31.727Z,42.83
2022-11-22T22:51:58.244Z,40.55
2022-11-22T22:54:24.640Z,44.03
2022-11-22T22:56:51.200Z,43.85
2022-11-22T22:59:17.644Z,41.58
2022-11-22T23:01:44.177Z,43.72
2022-11-22T23:04:10.747Z,43.20
2022-11-22T23:06:38.954Z,45.45
2022-11-22T23:09:08.316Z,42.13
2022-11-22T23:11:54.609Z,44.97
2022-11-22T23:14:23.793Z,43.75
2022-11-22T23:16:55.918Z,42.80
2022-11-22T23:19:24.215Z,44.45
2022-11-22T23:21:50.728Z,45.17
2022-11-22T23:24:17.333Z,42.45
2022-11-22T23:26:44.242Z,45.40
2022-11-22T23:29:10.939Z,43.67
2022-11-22T23:31:37.433Z,42.42
2022-11-22T23:34:03.921Z,42.42
2022-11-22T23:36:30.588Z,44.63
2022-11-22T23:38:57.060Z,45.17
2022-11-22T23:41:24.812Z,43.67
2022-11-22T23:43:53.573Z,43.65
2022-11-22T23:46:20.975Z,44.47
2022-11-22T23:48:53.556Z,44.17
2022-11-22T23:51:20.635Z,45.15
2022-11-22T23:53:47.264Z,44.08
2022-11-22T23:56:21.356Z,44.35
2022-11-22T23:58:48.282Z,44.83
